createdAt,value
2019-03-19T00:00:38.334Z,97.10
2019-03-19T00:01:12.553Z,97.00
2019-03-19T00:01:45.028Z,97.00
2019-03-19T00:02:17.839Z,96.90
2019-03-19T00:02:50.357Z,96.80
2019-03-19T00:03:22.835Z,97.10
2019-03-19T00:03:55.319Z,96.80
2019-03-19T00:04:28.125Z,96.90
2019-03-19T00:05:01.517Z,97.00
2019-03-19T00:05:34.003Z,96.80
2019-03-19T00:06:06.493Z,96.80
2019-03-19T00:06:39.019Z,96.70
2019-03-19T00:07:11.483Z,96.70
2019-03-19T00:07:43.976Z,96.60
2019-03-19T00:08:16.486Z,96.80
2019-03-19T00:08:48.956Z,97.00
2019-03-19T00:09:21.567Z,97.00
2019-03-19T00:09:54.064Z,97.00
2019-03-19T00:10:26.844Z,96.90
2019-03-19T00:10:59.598Z,96.90
2019-03-19T00:11:32.080Z,97.00
2019-03-19T00:12:04.575Z,97.00
2019-03-19T00:12:37.056Z,97.00
2019-03-19T00:13:09.548Z,97.00
2019-03-19T00:13:42.069Z,96.90
2019-03-19T00:14:14.554Z,96.90
2019-03-19T00:14:47.347Z,97.10
2019-03-19T00:15:19.844Z,97.10
2019-03-19T00:15:52.338Z,97.20
2019-03-19T00:16:24.836Z,97.10
2019-03-19T00:16:57.852Z,97.10
2019-03-19T00:17:30.672Z,97.30
2019-03-19T00:18:03.163Z,97.30
2019-03-19T00:18:35.656Z,97.40
2019-03-19T00:19:08.176Z,97.30
2019-03-19T00:19:41.041Z,97.30
2019-03-19T00:20:13.928Z,97.20
2019-03-19T00:20:46.424Z,97.10
2019-03-19T00:21:19.230Z,97.20
2019-03-19T00:21:52.000Z,97.40
2019-03-19T00:22:25.803Z,97.30
2019-03-19T00:22:58.450Z,97.50
2019-03-19T00:23:30.931Z,97.30
2019-03-19T00:24:03.795Z,97.30
2019-03-19T00:24:36.660Z,97.20
2019-03-19T00:25:09.533Z,97.20
2019-03-19T00:25:42.414Z,97.20
2019-03-19T00:26:15.275Z,97.40
2019-03-19T00:26:48.157Z,97.60
2019-03-19T00:27:20.688Z,97.60
2019-03-19T00:27:53.227Z,97.60
2019-03-19T00:28:25.712Z,97.70
2019-03-19T00:28:58.517Z,97.90
2019-03-19T00:29:31.036Z,97.70
2019-03-19T00:30:04.808Z,97.70
2019-03-19T00:30:37.342Z,97.80
2019-03-19T00:31:09.771Z,97.70
2019-03-19T00:31:42.542Z,97.80
2019-03-19T00:32:15.763Z,97.70
2019-03-19T00:32:48.602Z,97.60
2019-03-19T00:33:21.433Z,97.60
2019-03-19T00:33:53.924Z,97.60
2019-03-19T00:34:26.692Z,97.70
2019-03-19T00:34:59.800Z,97.90
2019-03-19T00:35:32.317Z,97.90
2019-03-19T00:36:05.142Z,98.10
2019-03-19T00:36:38.008Z,98.10
2019-03-19T00:37:10.847Z,98.00
2019-03-19T00:37:43.314Z,98.00
2019-03-19T00:38:15.803Z,98.10
2019-03-19T00:38:48.272Z,98.20
2019-03-19T00:39:21.399Z,98.20
2019-03-19T00:39:53.892Z,98.10
2019-03-19T00:40:26.740Z,98.20
2019-03-19T00:40:59.261Z,98.30
2019-03-19T00:41:32.139Z,98.40
2019-03-19T00:42:05.055Z,98.40
2019-03-19T00:42:37.860Z,98.40
2019-03-19T00:43:10.362Z,98.30
2019-03-19T00:43:42.835Z,98.30
2019-03-19T00:44:15.640Z,98.30
2019-03-19T00:44:48.892Z,98.30
2019-03-19T00:45:21.392Z,98.40
2019-03-19T00:45:53.862Z,98.50
2019-03-19T00:46:26.365Z,98.50
2019-03-19T00:46:58.869Z,98.50
2019-03-19T00:47:31.352Z,98.60
2019-03-19T00:48:04.158Z,98.60
2019-03-19T00:48:36.653Z,98.70
2019-03-19T00:49:09.140Z,98.80
2019-03-19T00:49:41.634Z,99.00
2019-03-19T00:50:14.122Z,99.10
2019-03-19T00:50:46.616Z,99.00
2019-03-19T00:51:19.759Z,98.90
2019-03-19T00:51:52.284Z,98.90
2019-03-19T00:52:24.769Z,98.90
2019-03-19T00:52:57.251Z,98.90
2019-03-19T00:53:29.743Z,98.90
2019-03-19T00:54:02.228Z,98.90
2019-03-19T00:54:34.818Z,98.90
2019-03-19T00:55:08.510Z,98.90
2019-03-19T00:55:41.237Z,99.00
2019-03-19T00:56:13.801Z,99.00
2019-03-19T00:56:46.276Z,99.00
2019-03-19T00:57:18.798Z,99.00
2019-03-19T00:57:51.627Z,99.30
2019-03-19T00:58:24.111Z,99.20
2019-03-19T00:58:56.588Z,99.30
2019-03-19T00:59:29.351Z,99.30
2019-03-19T01:00:01.845Z,99.40
2019-03-19T01:00:34.332Z,99.50
2019-03-19T01:01:07.154Z,99.60
2019-03-19T01:01:39.902Z,99.60
2019-03-19T01:02:12.779Z,99.80
2019-03-19T01:02:45.312Z,99.90
2019-03-19T01:03:17.783Z,99.90
2019-03-19T01:03:50.265Z,99.90
2019-03-19T01:04:22.744Z,99.90
2019-03-19T01:04:55.214Z,99.90
2019-03-19T01:05:28.626Z,99.90
2019-03-19T01:06:01.104Z,99.90
2019-03-19T01:06:34.017Z,99.90
2019-03-19T01:07:06.503Z,99.90
2019-03-19T01:07:39.017Z,99.90
2019-03-19T01:08:11.526Z,99.90
2019-03-19T01:08:43.994Z,99.90
2019-03-19T01:09:16.575Z,99.90
2019-03-19T01:09:49.740Z,99.90
2019-03-19T01:10:22.844Z,99.90
2019-03-19T01:10:55.607Z,99.90
2019-03-19T01:11:28.091Z,99.90
2019-03-19T01:12:00.580Z,99.90
2019-03-19T01:12:33.371Z,99.90
2019-03-19T01:13:05.855Z,99.90
2019-03-19T01:13:38.741Z,99.90
2019-03-19T01:14:11.228Z,99.90
2019-03-19T01:14:43.714Z,99.90
2019-03-19T01:15:16.190Z,99.90
2019-03-19T01:15:48.671Z,99.90
2019-03-19T01:16:21.146Z,99.90
2019-03-19T01:16:53.618Z,99.90
2019-03-19T01:17:26.103Z,99.90
2019-03-19T01:17:58.583Z,99.90
2019-03-19T01:18:31.106Z,99.90
2019-03-19T01:19:03.616Z,99.90
2019-03-19T01:19:36.093Z,99.90
2019-03-19T01:20:09.940Z,99.90
2019-03-19T01:20:42.418Z,99.90
2019-03-19T01:21:14.901Z,99.90
2019-03-19T01:21:47.659Z,99.90
2019-03-19T01:22:20.138Z,99.90
2019-03-19T01:22:52.932Z,99.90
2019-03-19T01:23:26.212Z,99.90
2019-03-19T01:23:59.088Z,99.90
2019-03-19T01:24:31.582Z,99.90
2019-03-19T01:25:04.952Z,99.90
2019-03-19T01:25:37.437Z,99.90
2019-03-19T01:26:10.215Z,99.90
2019-03-19T01:26:42.678Z,99.90
2019-03-19T01:27:15.160Z,99.90
2019-03-19T01:27:47.630Z,99.90
2019-03-19T01:28:20.436Z,99.90
2019-03-19T01:28:52.920Z,99.90
2019-03-19T01:29:25.399Z,99.90
2019-03-19T01:29:57.898Z,99.90
2019-03-19T01:30:30.378Z,99.90
2019-03-19T01:31:02.871Z,99.90
2019-03-19T01:31:35.351Z,99.90
2019-03-19T01:32:08.442Z,99.90
2019-03-19T01:32:41.195Z,99.90
2019-03-19T01:33:13.691Z,99.90
2019-03-19T01:33:46.178Z,99.90
2019-03-19T01:34:18.651Z,99.90
2019-03-19T01:34:51.494Z,99.90
2019-03-19T01:35:23.994Z,99.90
2019-03-19T01:35:56.771Z,99.90
2019-03-19T01:36:29.254Z,99.90
2019-03-19T01:37:02.131Z,99.90
2019-03-19T01:37:34.606Z,99.90
2019-03-19T01:38:07.083Z,99.90
2019-03-19T01:38:39.897Z,99.90
2019-03-19T01:39:12.364Z,99.90
2019-03-19T01:39:44.840Z,99.90
2019-03-19T01:40:17.323Z,99.90
2019-03-19T01:40:50.091Z,99.90
2019-03-19T01:41:22.566Z,99.90
2019-03-19T01:41:55.038Z,99.90
2019-03-19T01:42:28.174Z,99.90
2019-03-19T01:43:00.671Z,99.90
2019-03-19T01:43:33.156Z,99.90
2019-03-19T01:44:05.971Z,99.90
2019-03-19T01:44:38.468Z,99.90
2019-03-19T01:45:11.046Z,99.90
2019-03-19T01:45:43.876Z,99.90
2019-03-19T01:46:16.743Z,99.90
2019-03-19T01:46:49.912Z,99.90
2019-03-19T01:47:22.714Z,99.90
2019-03-19T01:47:55.550Z,99.90
2019-03-19T01:48:28.025Z,99.90
2019-03-19T01:49:00.514Z,99.90
2019-03-19T01:49:33.002Z,99.90
2019-03-19T01:50:05.952Z,99.90
2019-03-19T01:50:38.414Z,99.90
2019-03-19T01:51:11.045Z,99.90
2019-03-19T01:51:43.577Z,99.90
2019-03-19T01:52:16.376Z,99.90
2019-03-19T01:52:48.860Z,99.90
2019-03-19T01:53:21.348Z,99.90
2019-03-19T01:53:53.849Z,99.90
2019-03-19T01:54:26.632Z,99.90
2019-03-19T01:54:59.457Z,99.90
2019-03-19T01:55:32.264Z,99.90
2019-03-19T01:56:05.678Z,99.90
2019-03-19T01:56:38.238Z,99.90
2019-03-19T01:57:10.762Z,99.90
2019-03-19T01:57:43.239Z,99.90
2019-03-19T01:58:16.075Z,99.90
2019-03-19T01:58:49.249Z,99.90
2019-03-19T01:59:21.731Z,99.90
2019-03-19T01:59:54.543Z,99.90
2019-03-19T02:00:27.002Z,99.90
2019-03-19T02:00:59.492Z,99.90
2019-03-19T02:01:31.963Z,99.90
2019-03-19T02:02:05.171Z,99.90
2019-03-19T02:02:38.046Z,99.90
2019-03-19T02:03:10.524Z,99.90
2019-03-19T02:03:43.024Z,99.90
2019-03-19T02:04:16.660Z,99.90
2019-03-19T02:04:49.525Z,99.90
2019-03-19T02:05:22.095Z,99.90
2019-03-19T02:05:54.932Z,99.90
2019-03-19T02:06:27.437Z,99.90
2019-03-19T02:07:00.303Z,99.90
2019-03-19T02:07:32.770Z,99.90
2019-03-19T02:08:05.299Z,99.90
2019-03-19T02:08:37.784Z,99.90
2019-03-19T02:09:10.369Z,99.90
2019-03-19T02:09:42.868Z,99.90
2019-03-19T02:10:15.684Z,99.90
2019-03-19T02:10:48.152Z,99.90
2019-03-19T02:11:20.632Z,99.90
2019-03-19T02:11:53.468Z,99.90
2019-03-19T02:12:25.952Z,99.90
2019-03-19T02:12:58.497Z,99.90
2019-03-19T02:13:30.956Z,99.90
2019-03-19T02:14:03.448Z,99.90
2019-03-19T02:14:36.278Z,99.90
2019-03-19T02:15:10.000Z,99.90
2019-03-19T02:15:42.841Z,99.90
2019-03-19T02:16:15.316Z,99.90
2019-03-19T02:16:48.579Z,99.90
2019-03-19T02:17:21.393Z,99.90
2019-03-19T02:17:53.862Z,99.90
2019-03-19T02:18:26.459Z,99.90
2019-03-19T02:18:59.254Z,99.90
2019-03-19T02:19:32.022Z,99.90
2019-03-19T02:20:05.824Z,99.90
2019-03-19T02:20:39.136Z,99.90
2019-03-19T02:21:11.628Z,99.90
2019-03-19T02:21:44.438Z,99.90
2019-03-19T02:22:16.914Z,99.90
2019-03-19T02:22:49.404Z,99.90
2019-03-19T02:23:22.007Z,99.90
2019-03-19T02:23:54.480Z,99.90
2019-03-19T02:24:27.341Z,99.90
2019-03-19T02:24:59.812Z,99.90
2019-03-19T02:25:32.300Z,99.90
2019-03-19T02:26:15.678Z,99.90
2019-03-19T02:26:39.068Z,99.90
2019-03-19T02:27:11.900Z,99.90
2019-03-19T02:27:44.381Z,99.90
2019-03-19T02:28:16.854Z,99.90
2019-03-19T02:28:49.349Z,99.90
2019-03-19T02:29:22.121Z,99.90
2019-03-19T02:29:54.975Z,99.90
2019-03-19T02:30:27.794Z,99.90
2019-03-19T02:31:00.396Z,99.90
2019-03-19T02:31:32.875Z,99.90
2019-03-19T02:32:05.361Z,99.90
2019-03-19T02:32:37.836Z,99.90
2019-03-19T02:33:10.343Z,99.90
2019-03-19T02:33:42.803Z,99.90
2019-03-19T02:34:15.271Z,99.90
2019-03-19T02:34:48.084Z,99.90
2019-03-19T02:35:20.595Z,99.90
2019-03-19T02:35:53.080Z,99.90
2019-03-19T02:36:25.879Z,99.90
2019-03-19T02:36:58.697Z,99.90
2019-03-19T02:37:31.553Z,99.90
2019-03-19T02:38:04.809Z,99.90
2019-03-19T02:38:37.284Z,99.90
2019-03-19T02:39:09.755Z,99.90
2019-03-19T02:39:42.254Z,99.90
2019-03-19T02:40:14.735Z,99.90
2019-03-19T02:40:47.266Z,99.90
2019-03-19T02:41:19.737Z,99.90
2019-03-19T02:41:52.217Z,99.90
2019-03-19T02:42:24.689Z,99.90
2019-03-19T02:42:57.184Z,99.90
2019-03-19T02:43:29.647Z,99.90
2019-03-19T02:44:02.532Z,99.90
2019-03-19T02:44:35.133Z,99.90
2019-03-19T02:45:08.392Z,99.90
2019-03-19T02:45:40.860Z,99.90
2019-03-19T02:46:13.386Z,99.90
2019-03-19T02:46:45.888Z,99.90
2019-03-19T02:47:18.346Z,99.90
2019-03-19T02:47:51.483Z,99.90
2019-03-19T02:48:23.967Z,99.90
2019-03-19T02:48:56.782Z,99.90
2019-03-19T02:49:29.260Z,99.90
2019-03-19T02:50:01.756Z,99.90
2019-03-19T02:50:34.583Z,99.90
2019-03-19T02:51:07.457Z,99.90
2019-03-19T02:51:40.325Z,99.90
2019-03-19T02:52:12.798Z,99.90
2019-03-19T02:52:45.597Z,99.90
2019-03-19T02:53:18.095Z,99.90
2019-03-19T02:53:50.570Z,99.90
2019-03-19T02:54:23.052Z,99.90
2019-03-19T02:54:55.905Z,99.90
2019-03-19T02:55:28.382Z,99.90
2019-03-19T02:56:00.862Z,99.90
2019-03-19T02:56:33.732Z,99.90
2019-03-19T02:57:06.459Z,99.90
2019-03-19T02:57:38.968Z,99.90
2019-03-19T02:58:11.422Z,99.90
2019-03-19T02:58:44.297Z,99.90
2019-03-19T02:59:16.773Z,99.90
2019-03-19T02:59:49.596Z,99.90
2019-03-19T03:00:22.126Z,99.90
2019-03-19T03:00:54.602Z,99.90
2019-03-19T03:01:27.092Z,99.90
2019-03-19T03:01:59.947Z,99.90
2019-03-19T03:02:32.457Z,99.90
2019-03-19T03:03:04.928Z,99.90
2019-03-19T03:03:37.708Z,99.90
2019-03-19T03:04:10.197Z,99.90
2019-03-19T03:04:42.670Z,99.90
2019-03-19T03:05:15.348Z,99.90
2019-03-19T03:05:47.841Z,99.90
2019-03-19T03:06:20.363Z,99.90
2019-03-19T03:06:53.140Z,99.90
2019-03-19T03:07:26.409Z,99.90
2019-03-19T03:07:59.199Z,99.90
2019-03-19T03:08:31.653Z,99.90
2019-03-19T03:09:06.349Z,99.90
2019-03-19T03:09:39.106Z,99.90
2019-03-19T03:10:11.817Z,99.90
2019-03-19T03:10:44.294Z,99.90
2019-03-19T03:11:16.770Z,99.90
2019-03-19T03:11:49.273Z,99.90
2019-03-19T03:12:21.872Z,99.90
2019-03-19T03:12:54.347Z,99.90
2019-03-19T03:13:27.131Z,99.90
2019-03-19T03:13:59.616Z,99.90
2019-03-19T03:14:32.091Z,99.90
2019-03-19T03:15:05.473Z,99.90
2019-03-19T03:15:38.344Z,99.90
2019-03-19T03:16:10.817Z,99.90
2019-03-19T03:16:43.585Z,99.90
2019-03-19T03:17:16.073Z,99.90
2019-03-19T03:17:48.997Z,99.90
2019-03-19T03:18:21.468Z,99.90
2019-03-19T03:18:53.972Z,99.90
2019-03-19T03:19:26.459Z,99.90
2019-03-19T03:19:58.926Z,99.90
2019-03-19T03:20:32.055Z,99.90
2019-03-19T03:21:04.530Z,99.90
2019-03-19T03:21:36.999Z,99.90
2019-03-19T03:22:09.484Z,99.90
2019-03-19T03:22:42.281Z,99.90
2019-03-19T03:23:15.066Z,99.90
2019-03-19T03:23:47.917Z,99.90
2019-03-19T03:24:20.415Z,99.90
2019-03-19T03:24:52.918Z,99.90
2019-03-19T03:25:25.394Z,99.90
2019-03-19T03:25:57.882Z,99.90
2019-03-19T03:26:30.345Z,99.90
2019-03-19T03:27:02.935Z,99.90
2019-03-19T03:27:35.710Z,99.90
2019-03-19T03:28:08.190Z,99.90
2019-03-19T03:28:41.292Z,99.90
2019-03-19T03:29:13.794Z,99.90
2019-03-19T03:29:46.619Z,99.90
2019-03-19T03:30:19.145Z,99.90
2019-03-19T03:30:52.217Z,99.90
2019-03-19T03:31:24.695Z,99.90
2019-03-19T03:31:57.187Z,99.90
2019-03-19T03:32:29.677Z,99.90
2019-03-19T03:33:02.562Z,99.90
2019-03-19T03:33:36.092Z,99.90
2019-03-19T03:34:08.565Z,99.90
2019-03-19T03:34:41.041Z,99.90
2019-03-19T03:35:13.963Z,99.90
2019-03-19T03:35:46.402Z,99.90
2019-03-19T03:36:19.223Z,99.90
2019-03-19T03:36:52.002Z,99.90
2019-03-19T03:37:24.477Z,99.90
2019-03-19T03:37:56.961Z,99.90
2019-03-19T03:38:29.756Z,99.90
2019-03-19T03:39:02.280Z,99.90
2019-03-19T03:39:34.768Z,99.90
2019-03-19T03:40:08.822Z,99.90
2019-03-19T03:40:41.342Z,99.90
2019-03-19T03:41:13.830Z,99.90
2019-03-19T03:41:46.333Z,99.90
2019-03-19T03:42:18.808Z,99.90
2019-03-19T03:42:51.296Z,99.90
2019-03-19T03:43:23.781Z,99.90
2019-03-19T03:43:56.299Z,99.90
2019-03-19T03:44:28.756Z,99.90
2019-03-19T03:45:01.245Z,99.90
2019-03-19T03:45:34.097Z,99.90
2019-03-19T03:46:06.603Z,99.90
2019-03-19T03:46:39.097Z,99.90
2019-03-19T03:47:11.569Z,99.90
2019-03-19T03:47:44.053Z,99.90
2019-03-19T03:48:16.523Z,99.90
2019-03-19T03:48:49.000Z,99.90
2019-03-19T03:49:21.839Z,99.90
2019-03-19T03:49:54.325Z,99.90
2019-03-19T03:50:27.170Z,99.90
2019-03-19T03:50:59.630Z,99.90
2019-03-19T03:51:32.130Z,99.90
2019-03-19T03:52:05.008Z,99.90
2019-03-19T03:52:37.496Z,99.90
2019-03-19T03:53:09.981Z,99.90
2019-03-19T03:53:43.206Z,99.90
2019-03-19T03:54:15.684Z,99.90
2019-03-19T03:54:48.527Z,99.90
2019-03-19T03:55:21.009Z,99.90
2019-03-19T03:55:53.484Z,99.90
2019-03-19T03:56:25.959Z,99.90
2019-03-19T03:57:02.257Z,99.90
2019-03-19T03:57:33.479Z,99.90
2019-03-19T03:58:05.970Z,99.90
2019-03-19T03:58:38.434Z,99.90
2019-03-19T03:59:10.903Z,99.90
2019-03-19T03:59:43.397Z,99.90
2019-03-19T04:00:15.900Z,99.90
2019-03-19T04:00:48.383Z,99.90
2019-03-19T04:01:21.071Z,99.90
2019-03-19T04:01:53.561Z,99.90
2019-03-19T04:02:26.068Z,99.90
2019-03-19T04:02:58.829Z,99.90
2019-03-19T04:03:31.287Z,99.90
2019-03-19T04:04:04.361Z,99.90
2019-03-19T04:04:36.849Z,99.90
2019-03-19T04:05:09.669Z,99.90
2019-03-19T04:05:42.143Z,99.90
2019-03-19T04:06:14.628Z,99.90
2019-03-19T04:06:47.492Z,99.90
2019-03-19T04:07:19.977Z,99.90
2019-03-19T04:07:52.526Z,99.90
2019-03-19T04:08:25.287Z,99.90
2019-03-19T04:08:57.742Z,99.90
2019-03-19T04:09:30.513Z,99.90
2019-03-19T04:10:03.950Z,99.90
2019-03-19T04:10:36.415Z,99.90
2019-03-19T04:11:09.222Z,99.90
2019-03-19T04:11:41.991Z,99.90
2019-03-19T04:12:14.465Z,99.90
2019-03-19T04:12:46.955Z,99.90
2019-03-19T04:13:19.902Z,99.90
2019-03-19T04:13:52.372Z,99.90
2019-03-19T04:14:24.851Z,99.90
2019-03-19T04:14:58.143Z,99.90
2019-03-19T04:15:30.630Z,99.90
2019-03-19T04:16:03.122Z,99.90
2019-03-19T04:16:35.593Z,99.90
2019-03-19T04:17:08.186Z,99.90
2019-03-19T04:17:41.034Z,99.90
2019-03-19T04:18:13.519Z,99.90
2019-03-19T04:18:46.303Z,99.90
2019-03-19T04:19:18.801Z,99.90
2019-03-19T04:19:51.566Z,99.90
2019-03-19T04:20:24.056Z,99.90
2019-03-19T04:20:56.573Z,99.90
2019-03-19T04:21:29.061Z,99.90
2019-03-19T04:22:01.934Z,99.90
2019-03-19T04:22:34.452Z,99.90
2019-03-19T04:23:06.910Z,99.90
2019-03-19T04:23:39.381Z,99.90
2019-03-19T04:24:12.596Z,99.90
2019-03-19T04:24:45.075Z,99.90
2019-03-19T04:25:17.555Z,99.90
2019-03-19T04:25:50.340Z,99.90
2019-03-19T04:26:23.111Z,99.90
2019-03-19T04:26:55.957Z,99.90
2019-03-19T04:27:28.560Z,99.90
2019-03-19T04:28:01.048Z,99.90
2019-03-19T04:28:33.529Z,99.90
2019-03-19T04:29:06.285Z,99.90
2019-03-19T04:29:39.109Z,99.90
2019-03-19T04:30:11.967Z,99.90
2019-03-19T04:30:44.789Z,99.90
2019-03-19T04:31:17.270Z,99.90
2019-03-19T04:31:49.761Z,99.90
2019-03-19T04:32:22.581Z,99.90
2019-03-19T04:32:55.416Z,99.90
2019-03-19T04:33:27.884Z,99.90
2019-03-19T04:34:00.648Z,99.90
2019-03-19T04:34:33.137Z,99.90
2019-03-19T04:35:06.114Z,99.90
2019-03-19T04:35:38.881Z,99.90
2019-03-19T04:36:11.757Z,99.90
2019-03-19T04:36:44.236Z,99.90
2019-03-19T04:37:16.726Z,99.90
2019-03-19T04:37:49.512Z,99.90
2019-03-19T04:38:22.304Z,99.90
2019-03-19T04:38:55.090Z,99.90
2019-03-19T04:39:27.715Z,99.90
2019-03-19T04:40:00.382Z,99.90
2019-03-19T04:40:32.916Z,99.90
2019-03-19T04:41:05.718Z,99.90
2019-03-19T04:41:38.183Z,99.90
2019-03-19T04:42:11.307Z,99.90
2019-03-19T04:42:43.785Z,99.90
2019-03-19T04:43:16.409Z,99.90
2019-03-19T04:43:48.888Z,99.90
2019-03-19T04:44:21.740Z,99.90
2019-03-19T04:44:54.970Z,99.90
2019-03-19T04:45:27.783Z,99.90
2019-03-19T04:46:00.651Z,99.90
2019-03-19T04:46:33.130Z,99.90
2019-03-19T04:47:05.926Z,99.90
2019-03-19T04:47:39.167Z,99.90
2019-03-19T04:48:12.127Z,99.90
2019-03-19T04:48:44.926Z,99.90
2019-03-19T04:49:17.406Z,99.90
2019-03-19T04:49:49.898Z,99.90
2019-03-19T04:50:22.406Z,99.90
2019-03-19T04:50:54.950Z,99.90
2019-03-19T04:51:27.888Z,99.90
2019-03-19T04:52:00.376Z,99.90
2019-03-19T04:52:32.864Z,99.90
2019-03-19T04:53:05.610Z,99.90
2019-03-19T04:53:38.090Z,99.90
2019-03-19T04:54:10.579Z,99.90
2019-03-19T04:54:43.434Z,99.90
2019-03-19T04:55:16.035Z,99.90
2019-03-19T04:55:48.515Z,99.90
2019-03-19T04:56:21.372Z,99.90
2019-03-19T04:56:53.895Z,99.90
2019-03-19T04:57:27.258Z,99.90
2019-03-19T04:57:59.879Z,99.90
2019-03-19T04:58:32.682Z,99.90
2019-03-19T04:59:05.176Z,99.90
2019-03-19T04:59:37.672Z,99.90
2019-03-19T05:00:10.631Z,99.90
2019-03-19T05:00:45.067Z,99.90
2019-03-19T05:01:18.280Z,99.90
2019-03-19T05:01:50.772Z,99.90
2019-03-19T05:02:23.282Z,99.90
2019-03-19T05:02:56.060Z,99.90
2019-03-19T05:03:28.566Z,99.90
2019-03-19T05:04:01.061Z,99.90
2019-03-19T05:04:33.535Z,99.90
2019-03-19T05:05:07.058Z,99.90
2019-03-19T05:05:39.538Z,99.90
2019-03-19T05:06:12.032Z,99.90
2019-03-19T05:06:44.887Z,99.90
2019-03-19T05:07:17.683Z,99.90
2019-03-19T05:07:50.496Z,99.90
2019-03-19T05:08:23.374Z,99.90
2019-03-19T05:08:55.863Z,99.90
2019-03-19T05:09:28.331Z,99.90
2019-03-19T05:10:01.172Z,99.90
2019-03-19T05:10:33.646Z,99.90
2019-03-19T05:11:06.140Z,99.90
2019-03-19T05:11:38.620Z,99.90
2019-03-19T05:12:11.110Z,99.90
2019-03-19T05:12:43.941Z,99.90
2019-03-19T05:13:16.452Z,99.90
2019-03-19T05:13:48.953Z,99.90
2019-03-19T05:14:21.426Z,99.90
2019-03-19T05:14:53.920Z,99.90
2019-03-19T05:15:26.406Z,99.90
2019-03-19T05:15:58.877Z,99.90
2019-03-19T05:16:31.355Z,99.90
2019-03-19T05:17:04.140Z,99.90
2019-03-19T05:17:37.219Z,99.90
2019-03-19T05:18:10.059Z,99.90
2019-03-19T05:18:42.567Z,99.90
2019-03-19T05:19:15.046Z,99.90
2019-03-19T05:19:47.880Z,99.90
2019-03-19T05:20:20.759Z,99.90
2019-03-19T05:20:53.224Z,99.90
2019-03-19T05:21:26.016Z,99.90
2019-03-19T05:21:58.509Z,99.90
2019-03-19T05:22:30.981Z,99.90
2019-03-19T05:23:04.019Z,99.90
2019-03-19T05:23:36.880Z,99.90
2019-03-19T05:24:09.824Z,99.90
2019-03-19T05:24:42.304Z,99.90
2019-03-19T05:25:14.780Z,99.90
2019-03-19T05:25:47.271Z,99.90
2019-03-19T05:26:19.752Z,99.90
2019-03-19T05:26:52.255Z,99.90
2019-03-19T05:27:24.771Z,99.90
2019-03-19T05:27:57.199Z,99.90
2019-03-19T05:28:30.096Z,99.90
2019-03-19T05:29:02.890Z,99.90
2019-03-19T05:29:35.415Z,99.90
2019-03-19T05:30:09.478Z,99.90
2019-03-19T05:30:42.261Z,99.90
2019-03-19T05:31:14.735Z,99.90
2019-03-19T05:31:47.560Z,99.90
2019-03-19T05:32:20.343Z,99.90
2019-03-19T05:32:52.840Z,99.90
2019-03-19T05:33:25.965Z,99.90
2019-03-19T05:33:58.452Z,99.90
2019-03-19T05:34:30.948Z,99.90
2019-03-19T05:35:04.017Z,99.90
2019-03-19T05:35:36.507Z,99.90
2019-03-19T05:36:09.347Z,99.90
2019-03-19T05:36:41.839Z,99.90
2019-03-19T05:37:14.314Z,99.90
2019-03-19T05:37:47.156Z,99.90
2019-03-19T05:38:20.292Z,99.90
2019-03-19T05:38:53.434Z,99.90
2019-03-19T05:39:26.034Z,99.90
2019-03-19T05:39:58.524Z,99.90
2019-03-19T05:40:31.336Z,99.90
2019-03-19T05:41:03.819Z,99.90
2019-03-19T05:41:36.309Z,99.90
2019-03-19T05:42:09.083Z,99.90
2019-03-19T05:42:41.575Z,99.90
2019-03-19T05:43:14.051Z,99.90
2019-03-19T05:43:46.532Z,99.90
2019-03-19T05:44:19.023Z,99.90
2019-03-19T05:44:51.809Z,99.90
2019-03-19T05:45:24.690Z,99.90
2019-03-19T05:45:57.204Z,99.90
2019-03-19T05:46:29.692Z,99.90
2019-03-19T05:47:02.184Z,99.90
2019-03-19T05:47:37.520Z,99.90
2019-03-19T05:48:08.934Z,99.90
2019-03-19T05:48:41.424Z,99.90
2019-03-19T05:49:13.931Z,99.90
2019-03-19T05:49:46.415Z,99.90
2019-03-19T05:50:18.903Z,99.90
2019-03-19T05:50:51.379Z,99.90
2019-03-19T05:51:24.204Z,99.90
2019-03-19T05:51:56.700Z,99.90
2019-03-19T05:52:29.196Z,99.90
2019-03-19T05:53:02.223Z,99.90
2019-03-19T05:53:34.686Z,99.90
2019-03-19T05:54:07.338Z,99.90
2019-03-19T05:54:40.132Z,99.90
2019-03-19T05:55:12.824Z,99.90
2019-03-19T05:55:45.300Z,99.90
2019-03-19T05:56:17.778Z,99.90
2019-03-19T05:56:50.309Z,99.90
2019-03-19T05:57:23.156Z,99.90
2019-03-19T05:57:56.654Z,99.90
2019-03-19T05:58:29.518Z,99.90
2019-03-19T05:59:02.004Z,99.90
2019-03-19T05:59:34.482Z,99.90
2019-03-19T06:00:08.458Z,99.90
2019-03-19T06:00:41.301Z,99.90
2019-03-19T06:01:13.776Z,99.90
2019-03-19T06:01:46.632Z,99.90
2019-03-19T06:02:19.157Z,99.90
2019-03-19T06:02:51.639Z,99.90
2019-03-19T06:03:24.119Z,99.90
2019-03-19T06:03:56.591Z,99.90
2019-03-19T06:04:29.092Z,99.50
2019-03-19T06:05:01.567Z,98.80
2019-03-19T06:05:34.372Z,97.40
2019-03-19T06:06:07.246Z,97.40
2019-03-19T06:06:39.714Z,96.60
2019-03-19T06:07:12.184Z,96.20
2019-03-19T06:07:45.103Z,95.60
2019-03-19T06:08:17.614Z,95.00
2019-03-19T06:08:50.465Z,94.70
2019-03-19T06:09:23.232Z,94.30
2019-03-19T06:09:55.706Z,93.70
2019-03-19T06:10:28.876Z,93.80
2019-03-19T06:11:05.752Z,94.10
2019-03-19T06:11:40.554Z,94.00
2019-03-19T06:12:13.100Z,93.80
2019-03-19T06:12:45.588Z,94.10
2019-03-19T06:13:18.452Z,94.30
2019-03-19T06:13:50.920Z,94.30
2019-03-19T06:14:23.691Z,94.60
2019-03-19T06:14:56.176Z,94.40
2019-03-19T06:15:28.778Z,94.50
2019-03-19T06:16:01.576Z,94.50
2019-03-19T06:16:34.466Z,94.70
2019-03-19T06:17:06.975Z,94.80
2019-03-19T06:17:40.334Z,94.80
2019-03-19T06:18:12.843Z,95.00
2019-03-19T06:18:45.725Z,95.30
2019-03-19T06:19:18.195Z,95.20
2019-03-19T06:19:50.689Z,95.30
2019-03-19T06:20:23.559Z,95.60
2019-03-19T06:20:56.149Z,95.70
2019-03-19T06:21:28.626Z,95.80
2019-03-19T06:22:01.109Z,95.70
2019-03-19T06:22:33.712Z,95.70
2019-03-19T06:23:06.739Z,95.70
2019-03-19T06:23:39.229Z,96.00
2019-03-19T06:24:12.080Z,96.10
2019-03-19T06:24:44.952Z,96.30
2019-03-19T06:25:17.452Z,96.30
2019-03-19T06:25:51.010Z,96.40
2019-03-19T06:26:24.062Z,96.50
2019-03-19T06:26:56.556Z,96.50
2019-03-19T06:27:29.708Z,96.30
2019-03-19T06:28:02.556Z,96.40
2019-03-19T06:28:35.718Z,96.50
2019-03-19T06:29:08.320Z,96.70
2019-03-19T06:29:41.491Z,96.90
2019-03-19T06:30:14.963Z,97.10
2019-03-19T06:30:47.857Z,97.20
2019-03-19T06:31:20.725Z,97.30
2019-03-19T06:31:53.486Z,97.20
2019-03-19T06:32:26.256Z,96.90
2019-03-19T06:32:59.013Z,97.20
2019-03-19T06:33:31.797Z,97.30
2019-03-19T06:34:04.343Z,97.40
2019-03-19T06:34:36.762Z,97.70
2019-03-19T06:35:09.957Z,98.00
2019-03-19T06:35:42.794Z,98.10
2019-03-19T06:36:15.282Z,98.10
2019-03-19T06:36:47.758Z,98.30
2019-03-19T06:37:20.511Z,98.10
2019-03-19T06:37:55.109Z,98.10
2019-03-19T06:38:27.530Z,98.20
2019-03-19T06:39:00.020Z,98.30
2019-03-19T06:39:32.494Z,98.10
2019-03-19T06:40:05.754Z,98.20
2019-03-19T06:40:38.352Z,98.60
2019-03-19T06:41:10.819Z,98.80
2019-03-19T06:41:43.311Z,98.70
2019-03-19T06:42:15.786Z,98.80
2019-03-19T06:42:48.266Z,98.80
2019-03-19T06:43:20.753Z,98.90
2019-03-19T06:43:53.569Z,98.90
2019-03-19T06:44:26.070Z,98.90
2019-03-19T06:44:59.012Z,98.90
2019-03-19T06:45:31.498Z,98.90
2019-03-19T06:46:04.012Z,98.90
2019-03-19T06:46:36.494Z,99.00
2019-03-19T06:47:09.364Z,98.90
2019-03-19T06:47:41.840Z,99.10
2019-03-19T06:48:15.097Z,99.10
2019-03-19T06:48:47.759Z,98.90
2019-03-19T06:49:20.659Z,99.10
2019-03-19T06:49:53.172Z,99.10
2019-03-19T06:50:28.001Z,99.20
2019-03-19T06:51:00.248Z,99.30
2019-03-19T06:51:32.784Z,99.30
2019-03-19T06:52:05.283Z,99.10
2019-03-19T06:52:38.072Z,99.00
2019-03-19T06:53:10.546Z,98.90
2019-03-19T06:53:43.305Z,98.90
2019-03-19T06:54:15.793Z,98.80
2019-03-19T06:54:48.732Z,98.80
2019-03-19T06:55:22.152Z,99.10
2019-03-19T06:55:54.682Z,98.90
2019-03-19T06:56:27.552Z,99.00
2019-03-19T06:57:02.542Z,99.30
2019-03-19T06:57:39.361Z,99.10
2019-03-19T06:58:11.257Z,99.30
2019-03-19T06:58:44.070Z,98.90
2019-03-19T06:59:16.999Z,99.00
2019-03-19T06:59:49.793Z,98.90
2019-03-19T07:00:22.323Z,99.00
2019-03-19T07:00:55.489Z,99.30
2019-03-19T07:01:28.712Z,99.30